Hollyglen, California
Current Conditions -  °F | °C
As of 3:53 AM on Thursday 29 Jan 2015 (Local Time) from KHHR Reporting Station
Clear Clear  
Wind Chill: 63°   Ceiling: Unl
Heat Index: 63°   Visibility: 10mi
Dew Point: 46°   Wind: 0mph
Humidity: 54%   Direction: NA
Pressure: 30.03"   Gusts: NA
Location:  33.9143°N, 118.349°W
Report Text: KHHR 291153Z AUTO 00000KT 10SM CLR 17/08 A3003 RMK AO2 SLP167 T01720078 10183 20167 58007 TSNO
Loading
Personal Weather Stations






























Interactive Weather Map New forecast layout! Learn more

10-Day Weather Forecast

Advertisements
Track Severe Weather on mobile